sensor_id;sensor_type;location;lat;lon;timestamp;P1;durP1;ratioP1;P2;durP2;ratioP2
1682;SDS011;13252;53.596;10.060;2022-08-01T00:00:47;20.20;;;18.50;;
1682;SDS011;13252;53.596;10.060;2022-08-01T00:03:15;16.47;;;14.97;;
1682;SDS011;13252;53.596;10.060;2022-08-01T00:05:42;16.73;;;15.23;;
1682;SDS011;13252;53.596;10.060;2022-08-01T00:08:11;16.00;;;14.37;;
1682;SDS011;13252;53.596;10.060;2022-08-01T00:10:39;15.13;;;13.63;;
1682;SDS011;13252;53.596;10.060;2022-08-01T00:13:08;17.30;;;15.70;;
1682;SDS011;13252;53.596;10.060;2022-08-01T00:15:36;16.97;;;15.50;;
1682;SDS011;13252;53.596;10.060;2022-08-01T00:18:03;17.33;;;15.53;;
1682;SDS011;13252;53.596;10.060;2022-08-01T00:20:31;17.70;;;16.10;;
1682;SDS011;13252;53.596;10.060;2022-08-01T00:22:59;17.63;;;16.03;;
1682;SDS011;13252;53.596;10.060;2022-08-01T00:25:29;17.33;;;15.57;;
1682;SDS011;13252;53.596;10.060;2022-08-01T00:27:59;18.80;;;16.57;;
1682;SDS011;13252;53.596;10.060;2022-08-01T00:30:31;18.50;;;16.60;;
1682;SDS011;13252;53.596;10.060;2022-08-01T00:32:58;19.67;;;17.50;;
1682;SDS011;13252;53.596;10.060;2022-08-01T00:35:26;21.37;;;18.13;;
1682;SDS011;13252;53.596;10.060;2022-08-01T00:37:54;20.60;;;18.40;;
1682;SDS011;13252;53.596;10.060;2022-08-01T00:40:21;18.97;;;17.00;;
1682;SDS011;13252;53.596;10.060;2022-08-01T00:42:49;20.00;;;17.00;;
1682;SDS011;13252;53.596;10.060;2022-08-01T00:45:17;19.87;;;17.93;;
1682;SDS011;13252;53.596;10.060;2022-08-01T00:47:46;19.73;;;17.80;;
1682;SDS011;13252;53.596;10.060;2022-08-01T00:50:20;18.63;;;16.83;;
1682;SDS011;13252;53.596;10.060;2022-08-01T00:52:50;20.00;;;17.10;;
1682;SDS011;13252;53.596;10.060;2022-08-01T00:55:18;18.17;;;16.40;;
1682;SDS011;13252;53.596;10.060;2022-08-01T00:57:46;18.87;;;16.53;;
1682;SDS011;13252;53.596;10.060;2022-08-01T01:00:30;19.00;;;16.03;;
1682;SDS011;13252;53.596;10.060;2022-08-01T01:03:20;24.03;;;16.33;;
1682;SDS011;13252;53.596;10.060;2022-08-01T01:06:06;21.93;;;15.70;;
1682;SDS011;13252;53.596;10.060;2022-08-01T01:08:43;18.80;;;16.80;;
1682;SDS011;13252;53.596;10.060;2022-08-01T01:11:16;18.60;;;16.60;;
1682;SDS011;13252;53.596;10.060;2022-08-01T01:13:50;17.50;;;15.70;;
1682;SDS011;13252;53.596;10.060;2022-08-01T01:16:21;17.43;;;14.77;;
1682;SDS011;13252;53.596;10.060;2022-08-01T01:18:51;17.73;;;15.07;;
1682;SDS011;13252;53.596;10.060;2022-08-01T01:21:27;17.33;;;14.63;;
1682;SDS011;13252;53.596;10.060;2022-08-01T01:24:02;15.37;;;13.73;;
1682;SDS011;13252;53.596;10.060;2022-08-01T01:26:40;16.20;;;14.60;;
1682;SDS011;13252;53.596;10.060;2022-08-01T01:29:16;14.83;;;13.07;;
1682;SDS011;13252;53.596;10.060;2022-08-01T01:31:46;16.83;;;15.03;;
1682;SDS011;13252;53.596;10.060;2022-08-01T01:34:16;17.30;;;14.37;;
1682;SDS011;13252;53.596;10.060;2022-08-01T01:36:45;14.40;;;13.00;;
1682;SDS011;13252;53.596;10.060;2022-08-01T01:39:15;15.60;;;14.00;;
1682;SDS011;13252;53.596;10.060;2022-08-01T01:41:43;17.33;;;14.97;;
1682;SDS011;13252;53.596;10.060;2022-08-01T01:44:15;15.53;;;13.93;;
1682;SDS011;13252;53.596;10.060;2022-08-01T01:46:44;16.70;;;13.83;;
1682;SDS011;13252;53.596;10.060;2022-08-01T01:49:13;14.23;;;12.80;;
1682;SDS011;13252;53.596;10.060;2022-08-01T01:51:41;20.40;;;13.70;;
1682;SDS011;13252;53.596;10.060;2022-08-01T01:54:28;14.67;;;13.17;;
1682;SDS011;13252;53.596;10.060;2022-08-01T01:56:58;15.17;;;13.07;;
1682;SDS011;13252;53.596;10.060;2022-08-01T01:59:28;14.87;;;13.37;;
1682;SDS011;13252;53.596;10.060;2022-08-01T02:01:58;19.93;;;14.23;;
1682;SDS011;13252;53.596;10.060;2022-08-01T02:04:31;16.67;;;13.80;;
1682;SDS011;13252;53.596;10.060;2022-08-01T02:07:00;19.50;;;15.30;;
1682;SDS011;13252;53.596;10.060;2022-08-01T02:09:29;16.67;;;13.53;;
1682;SDS011;13252;53.596;10.060;2022-08-01T02:11:58;20.67;;;13.67;;
1682;SDS011;13252;53.596;10.060;2022-08-01T02:14:35;17.30;;;13.90;;
1682;SDS011;13252;53.596;10.060;2022-08-01T02:17:03;16.47;;;14.13;;
1682;SDS011;13252;53.596;10.060;2022-08-01T02:19:30;15.87;;;13.63;;
1682;SDS011;13252;53.596;10.060;2022-08-01T02:22:04;21.70;;;13.67;;
1682;SDS011;13252;53.596;10.060;2022-08-01T02:24:36;17.20;;;12.70;;
1682;SDS011;13252;53.596;10.060;2022-08-01T02:27:06;22.63;;;13.70;;
1682;SDS011;13252;53.596;10.060;2022-08-01T02:29:37;14.60;;;13.10;;
1682;SDS011;13252;53.596;10.060;2022-08-01T02:32:07;12.93;;;11.73;;
1682;SDS011;13252;53.596;10.060;2022-08-01T02:34:35;12.90;;;11.50;;
1682;SDS011;13252;53.596;10.060;2022-08-01T02:37:03;16.93;;;11.43;;
1682;SDS011;13252;53.596;10.060;2022-08-01T02:39:32;12.23;;;11.13;;
1682;SDS011;13252;53.596;10.060;2022-08-01T02:42:04;16.13;;;11.50;;
1682;SDS011;13252;53.596;10.060;2022-08-01T02:44:35;12.17;;;10.70;;
1682;SDS011;13252;53.596;10.060;2022-08-01T02:47:06;14.80;;;11.40;;
1682;SDS011;13252;53.596;10.060;2022-08-01T02:49:37;13.17;;;9.73;;
1682;SDS011;13252;53.596;10.060;2022-08-01T02:52:08;13.57;;;9.53;;
1682;SDS011;13252;53.596;10.060;2022-08-01T02:54:37;17.20;;;10.83;;
1682;SDS011;13252;53.596;10.060;2022-08-01T02:57:06;15.80;;;10.70;;
1682;SDS011;13252;53.596;10.060;2022-08-01T02:59:40;10.57;;;9.60;;
1682;SDS011;13252;53.596;10.060;2022-08-01T03:02:10;11.77;;;10.10;;
1682;SDS011;13252;53.596;10.060;2022-08-01T03:04:38;12.23;;;10.67;;
1682;SDS011;13252;53.596;10.060;2022-08-01T03:07:08;13.63;;;11.40;;
1682;SDS011;13252;53.596;10.060;2022-08-01T03:09:37;17.63;;;12.40;;
1682;SDS011;13252;53.596;10.060;2022-08-01T03:12:09;11.80;;;10.57;;
1682;SDS011;13252;53.596;10.060;2022-08-01T03:14:39;12.90;;;11.60;;
1682;SDS011;13252;53.596;10.060;2022-08-01T03:17:12;11.67;;;10.20;;
1682;SDS011;13252;53.596;10.060;2022-08-01T03:19:40;12.67;;;11.27;;
1682;SDS011;13252;53.596;10.060;2022-08-01T03:22:09;10.90;;;9.70;;
1682;SDS011;13252;53.596;10.060;2022-08-01T03:24:39;15.07;;;10.63;;
1682;SDS011;13252;53.596;10.060;2022-08-01T03:27:07;12.43;;;11.20;;
1682;SDS011;13252;53.596;10.060;2022-08-01T03:29:38;14.03;;;11.10;;
1682;SDS011;13252;53.596;10.060;2022-08-01T03:32:07;12.50;;;10.40;;
1682;SDS011;13252;53.596;10.060;2022-08-01T03:34:36;11.60;;;10.57;;
1682;SDS011;13252;53.596;10.060;2022-08-01T03:37:05;14.20;;;9.60;;
1682;SDS011;13252;53.596;10.060;2022-08-01T03:39:37;13.83;;;10.47;;
1682;SDS011;13252;53.596;10.060;2022-08-01T03:42:14;10.33;;;9.37;;
1682;SDS011;13252;53.596;10.060;2022-08-01T03:44:46;9.57;;;8.67;;
1682;SDS011;13252;53.596;10.060;2022-08-01T03:47:18;13.83;;;9.37;;
1682;SDS011;13252;53.596;10.060;2022-08-01T03:49:49;10.73;;;9.30;;
1682;SDS011;13252;53.596;10.060;2022-08-01T03:52:18;10.53;;;9.07;;
1682;SDS011;13252;53.596;10.060;2022-08-01T03:54:47;10.87;;;7.47;;
1682;SDS011;13252;53.596;10.060;2022-08-01T03:57:15;12.07;;;7.70;;
1682;SDS011;13252;53.596;10.060;2022-08-01T04:00:02;8.93;;;7.60;;
1682;SDS011;13252;53.596;10.060;2022-08-01T04:02:38;9.93;;;6.50;;
1682;SDS011;13252;53.596;10.060;2022-08-01T04:05:07;12.13;;;8.00;;
1682;SDS011;13252;53.596;10.060;2022-08-01T04:07:35;9.93;;;6.43;;
1682;SDS011;13252;53.596;10.060;2022-08-01T04:10:05;8.43;;;6.33;;
1682;SDS011;13252;53.596;10.060;2022-08-01T04:12:34;8.93;;;6.13;;
1682;SDS011;13252;53.596;10.060;2022-08-01T04:15:01;8.90;;;5.73;;
1682;SDS011;13252;53.596;10.060;2022-08-01T04:17:29;9.80;;;6.23;;
1682;SDS011;13252;53.596;10.060;2022-08-01T04:19:58;10.23;;;6.37;;
1682;SDS011;13252;53.596;10.060;2022-08-01T04:22:26;8.27;;;6.30;;
1682;SDS011;13252;53.596;10.060;2022-08-01T04:24:54;7.70;;;6.30;;
1682;SDS011;13252;53.596;10.060;2022-08-01T04:27:24;7.13;;;6.27;;
1682;SDS011;13252;53.596;10.060;2022-08-01T04:30:15;7.60;;;5.73;;
1682;SDS011;13252;53.596;10.060;2022-08-01T04:32:46;8.53;;;6.53;;
1682;SDS011;13252;53.596;10.060;2022-08-01T04:35:15;8.10;;;6.67;;
1682;SDS011;13252;53.596;10.060;2022-08-01T04:38:05;10.70;;;6.60;;
1682;SDS011;13252;53.596;10.060;2022-08-01T04:40:34;9.27;;;7.07;;
1682;SDS011;13252;53.596;10.060;2022-08-01T04:43:02;11.83;;;6.43;;
1682;SDS011;13252;53.596;10.060;2022-08-01T04:45:31;6.57;;;5.90;;
1682;SDS011;13252;53.596;10.060;2022-08-01T04:47:59;7.50;;;6.60;;
1682;SDS011;13252;53.596;10.060;2022-08-01T04:50:28;13.33;;;7.00;;
1682;SDS011;13252;53.596;10.060;2022-08-01T04:52:58;8.20;;;6.50;;
1682;SDS011;13252;53.596;10.060;2022-08-01T04:55:25;7.57;;;6.70;;
1682;SDS011;13252;53.596;10.060;2022-08-01T04:57:53;8.37;;;6.83;;
1682;SDS011;13252;53.596;10.060;2022-08-01T05:00:21;6.80;;;6.10;;
1682;SDS011;13252;53.596;10.060;2022-08-01T05:02:49;8.30;;;5.53;;
1682;SDS011;13252;53.596;10.060;2022-08-01T05:05:16;9.07;;;5.77;;
1682;SDS011;13252;53.596;10.060;2022-08-01T05:07:45;7.50;;;5.73;;
1682;SDS011;13252;53.596;10.060;2022-08-01T05:10:13;9.40;;;5.87;;
1682;SDS011;13252;53.596;10.060;2022-08-01T05:12:41;5.77;;;4.80;;
1682;SDS011;13252;53.596;10.060;2022-08-01T05:15:08;3.70;;;3.10;;
1682;SDS011;13252;53.596;10.060;2022-08-01T05:17:40;3.53;;;2.70;;
1682;SDS011;13252;53.596;10.060;2022-08-01T05:20:09;4.30;;;2.63;;
1682;SDS011;13252;53.596;10.060;2022-08-01T05:22:37;3.40;;;2.37;;
1682;SDS011;13252;53.596;10.060;2022-08-01T05:25:07;5.10;;;2.90;;
1682;SDS011;13252;53.596;10.060;2022-08-01T05:27:37;4.43;;;2.07;;
1682;SDS011;13252;53.596;10.060;2022-08-01T05:30:06;2.90;;;2.20;;
1682;SDS011;13252;53.596;10.060;2022-08-01T05:32:35;4.73;;;2.73;;
1682;SDS011;13252;53.596;10.060;2022-08-01T05:35:03;5.70;;;2.30;;
1682;SDS011;13252;53.596;10.060;2022-08-01T05:37:31;4.10;;;2.10;;
1682;SDS011;13252;53.596;10.060;2022-08-01T05:39:59;4.07;;;2.73;;
1682;SDS011;13252;53.596;10.060;2022-08-01T05:42:28;6.47;;;2.80;;
1682;SDS011;13252;53.596;10.060;2022-08-01T05:44:56;6.17;;;2.73;;
1682;SDS011;13252;53.596;10.060;2022-08-01T05:47:23;5.00;;;2.80;;
1682;SDS011;13252;53.596;10.060;2022-08-01T05:49:51;6.33;;;3.50;;
1682;SDS011;13252;53.596;10.060;2022-08-01T05:52:19;4.77;;;2.73;;
1682;SDS011;13252;53.596;10.060;2022-08-01T05:54:46;6.93;;;3.07;;
1682;SDS011;13252;53.596;10.060;2022-08-01T05:57:14;4.40;;;3.00;;
1682;SDS011;13252;53.596;10.060;2022-08-01T05:59:43;4.80;;;3.17;;
1682;SDS011;13252;53.596;10.060;2022-08-01T06:02:11;5.23;;;2.73;;
1682;SDS011;13252;53.596;10.060;2022-08-01T06:04:39;7.13;;;3.07;;
1682;SDS011;13252;53.596;10.060;2022-08-01T06:07:06;4.53;;;2.77;;
1682;SDS011;13252;53.596;10.060;2022-08-01T06:09:34;4.73;;;2.20;;
1682;SDS011;13252;53.596;10.060;2022-08-01T06:12:02;6.13;;;2.70;;
1682;SDS011;13252;53.596;10.060;2022-08-01T06:14:30;7.37;;;3.13;;
1682;SDS011;13252;53.596;10.060;2022-08-01T06:16:59;5.70;;;2.60;;
1682;SDS011;13252;53.596;10.060;2022-08-01T06:19:27;8.03;;;2.93;;
1682;SDS011;13252;53.596;10.060;2022-08-01T06:21:54;7.40;;;2.87;;
1682;SDS011;13252;53.596;10.060;2022-08-01T06:24:22;12.40;;;3.47;;
1682;SDS011;13252;53.596;10.060;2022-08-01T06:26:50;10.03;;;3.30;;
1682;SDS011;13252;53.596;10.060;2022-08-01T06:29:17;7.23;;;3.70;;
1682;SDS011;13252;53.596;10.060;2022-08-01T06:31:45;10.13;;;3.13;;
1682;SDS011;13252;53.596;10.060;2022-08-01T06:34:14;9.93;;;3.00;;
1682;SDS011;13252;53.596;10.060;2022-08-01T06:36:42;5.77;;;2.90;;
1682;SDS011;13252;53.596;10.060;2022-08-01T06:39:10;7.17;;;3.20;;
1682;SDS011;13252;53.596;10.060;2022-08-01T06:41:37;10.33;;;3.60;;
1682;SDS011;13252;53.596;10.060;2022-08-01T06:44:07;10.13;;;4.63;;
1682;SDS011;13252;53.596;10.060;2022-08-01T06:46:35;12.17;;;5.90;;
1682;SDS011;13252;53.596;10.060;2022-08-01T06:49:02;16.20;;;5.80;;
1682;SDS011;13252;53.596;10.060;2022-08-01T06:51:32;7.90;;;4.40;;
1682;SDS011;13252;53.596;10.060;2022-08-01T06:53:59;8.47;;;4.43;;
1682;SDS011;13252;53.596;10.060;2022-08-01T06:56:27;9.37;;;5.10;;
1682;SDS011;13252;53.596;10.060;2022-08-01T06:58:55;9.57;;;4.70;;
1682;SDS011;13252;53.596;10.060;2022-08-01T07:01:26;8.90;;;6.60;;
1682;SDS011;13252;53.596;10.060;2022-08-01T07:03:54;12.43;;;6.50;;
1682;SDS011;13252;53.596;10.060;2022-08-01T07:06:22;9.23;;;5.90;;
1682;SDS011;13252;53.596;10.060;2022-08-01T07:08:52;11.07;;;7.07;;
1682;SDS011;13252;53.596;10.060;2022-08-01T07:11:20;8.03;;;5.53;;
1682;SDS011;13252;53.596;10.060;2022-08-01T07:13:48;11.73;;;6.70;;
1682;SDS011;13252;53.596;10.060;2022-08-01T07:16:16;13.53;;;6.67;;
1682;SDS011;13252;53.596;10.060;2022-08-01T07:18:44;11.00;;;6.10;;
1682;SDS011;13252;53.596;10.060;2022-08-01T07:21:12;18.57;;;7.50;;
1682;SDS011;13252;53.596;10.060;2022-08-01T07:24:01;13.00;;;5.90;;
1682;SDS011;13252;53.596;10.060;2022-08-01T07:26:39;13.73;;;5.80;;
1682;SDS011;13252;53.596;10.060;2022-08-01T07:29:19;12.57;;;5.37;;
1682;SDS011;13252;53.596;10.060;2022-08-01T07:31:47;13.47;;;5.00;;
1682;SDS011;13252;53.596;10.060;2022-08-01T07:34:15;22.90;;;5.37;;
1682;SDS011;13252;53.596;10.060;2022-08-01T07:36:42;12.33;;;5.10;;
1682;SDS011;13252;53.596;10.060;2022-08-01T07:39:11;15.07;;;5.33;;
1682;SDS011;13252;53.596;10.060;2022-08-01T07:41:39;12.53;;;5.00;;
1682;SDS011;13252;53.596;10.060;2022-08-01T07:44:26;15.67;;;6.63;;
1682;SDS011;13252;53.596;10.060;2022-08-01T07:46:54;14.77;;;6.23;;
1682;SDS011;13252;53.596;10.060;2022-08-01T07:49:22;22.10;;;5.13;;
1682;SDS011;13252;53.596;10.060;2022-08-01T07:51:50;15.17;;;6.80;;
1682;SDS011;13252;53.596;10.060;2022-08-01T07:54:31;14.00;;;5.67;;
1682;SDS011;13252;53.596;10.060;2022-08-01T07:57:00;13.17;;;5.47;;
1682;SDS011;13252;53.596;10.060;2022-08-01T07:59:28;12.90;;;5.50;;
1682;SDS011;13252;53.596;10.060;2022-08-01T08:01:56;23.97;;;6.77;;
1682;SDS011;13252;53.596;10.060;2022-08-01T08:04:24;14.33;;;5.20;;
1682;SDS011;13252;53.596;10.060;2022-08-01T08:06:52;13.47;;;4.90;;
1682;SDS011;13252;53.596;10.060;2022-08-01T08:09:20;16.37;;;3.90;;
1682;SDS011;13252;53.596;10.060;2022-08-01T08:11:49;10.87;;;3.70;;
1682;SDS011;13252;53.596;10.060;2022-08-01T08:14:17;12.80;;;3.30;;
1682;SDS011;13252;53.596;10.060;2022-08-01T08:16:45;17.47;;;3.73;;
1682;SDS011;13252;53.596;10.060;2022-08-01T08:19:13;12.70;;;4.20;;
1682;SDS011;13252;53.596;10.060;2022-08-01T08:21:40;21.23;;;4.30;;
1682;SDS011;13252;53.596;10.060;2022-08-01T08:24:08;16.37;;;3.63;;
1682;SDS011;13252;53.596;10.060;2022-08-01T08:26:54;8.20;;;2.97;;
1682;SDS011;13252;53.596;10.060;2022-08-01T08:29:22;10.93;;;2.90;;
1682;SDS011;13252;53.596;10.060;2022-08-01T08:31:51;14.27;;;3.40;;
1682;SDS011;13252;53.596;10.060;2022-08-01T08:34:19;19.80;;;3.33;;
1682;SDS011;13252;53.596;10.060;2022-08-01T08:36:47;7.17;;;2.63;;
1682;SDS011;13252;53.596;10.060;2022-08-01T08:39:15;11.00;;;3.70;;
1682;SDS011;13252;53.596;10.060;2022-08-01T08:41:45;8.03;;;2.93;;
1682;SDS011;13252;53.596;10.060;2022-08-01T08:44:16;7.87;;;3.03;;
1682;SDS011;13252;53.596;10.060;2022-08-01T08:46:46;9.80;;;2.93;;
1682;SDS011;13252;53.596;10.060;2022-08-01T08:49:15;9.17;;;2.63;;
1682;SDS011;13252;53.596;10.060;2022-08-01T08:51:46;10.47;;;3.13;;
1682;SDS011;13252;53.596;10.060;2022-08-01T08:54:15;9.63;;;2.87;;
1682;SDS011;13252;53.596;10.060;2022-08-01T08:56:43;8.33;;;2.97;;
1682;SDS011;13252;53.596;10.060;2022-08-01T08:59:12;13.03;;;2.97;;
1682;SDS011;13252;53.596;10.060;2022-08-01T09:01:42;6.00;;;2.73;;
1682;SDS011;13252;53.596;10.060;2022-08-01T09:04:10;7.77;;;3.00;;
1682;SDS011;13252;53.596;10.060;2022-08-01T09:06:38;9.80;;;3.27;;
1682;SDS011;13252;53.596;10.060;2022-08-01T09:09:07;11.17;;;3.27;;
1682;SDS011;13252;53.596;10.060;2022-08-01T09:11:36;8.63;;;3.87;;
1682;SDS011;13252;53.596;10.060;2022-08-01T09:14:05;11.00;;;2.93;;
1682;SDS011;13252;53.596;10.060;2022-08-01T09:16:35;12.50;;;3.13;;
1682;SDS011;13252;53.596;10.060;2022-08-01T09:19:09;7.47;;;2.83;;
1682;SDS011;13252;53.596;10.060;2022-08-01T09:22:00;14.80;;;3.87;;
1682;SDS011;13252;53.596;10.060;2022-08-01T09:24:30;9.33;;;3.20;;
1682;SDS011;13252;53.596;10.060;2022-08-01T09:26:59;10.93;;;2.47;;
1682;SDS011;13252;53.596;10.060;2022-08-01T09:29:29;10.07;;;2.70;;
1682;SDS011;13252;53.596;10.060;2022-08-01T09:32:06;14.90;;;3.07;;
1682;SDS011;13252;53.596;10.060;2022-08-01T09:34:42;13.50;;;2.90;;
1682;SDS011;13252;53.596;10.060;2022-08-01T09:37:12;10.63;;;3.30;;
1682;SDS011;13252;53.596;10.060;2022-08-01T09:39:49;18.10;;;3.17;;
1682;SDS011;13252;53.596;10.060;2022-08-01T09:42:25;12.73;;;3.40;;
1682;SDS011;13252;53.596;10.060;2022-08-01T09:44:54;14.50;;;3.93;;
1682;SDS011;13252;53.596;10.060;2022-08-01T09:47:22;11.60;;;2.80;;
1682;SDS011;13252;53.596;10.060;2022-08-01T09:50:06;7.20;;;3.20;;
1682;SDS011;13252;53.596;10.060;2022-08-01T09:52:36;8.87;;;2.03;;
1682;SDS011;13252;53.596;10.060;2022-08-01T09:55:07;11.80;;;3.37;;
1682;SDS011;13252;53.596;10.060;2022-08-01T09:57:35;9.53;;;2.77;;
1682;SDS011;13252;53.596;10.060;2022-08-01T10:00:03;12.67;;;2.60;;
1682;SDS011;13252;53.596;10.060;2022-08-01T10:02:38;12.00;;;2.80;;
1682;SDS011;13252;53.596;10.060;2022-08-01T10:05:09;12.23;;;3.10;;
1682;SDS011;13252;53.596;10.060;2022-08-01T10:07:54;9.60;;;1.93;;
1682;SDS011;13252;53.596;10.060;2022-08-01T10:10:24;12.67;;;3.10;;
1682;SDS011;13252;53.596;10.060;2022-08-01T10:12:55;13.57;;;2.80;;
1682;SDS011;13252;53.596;10.060;2022-08-01T10:15:23;21.43;;;3.50;;
1682;SDS011;13252;53.596;10.060;2022-08-01T10:18:02;29.43;;;3.10;;
1682;SDS011;13252;53.596;10.060;2022-08-01T10:20:53;10.07;;;2.67;;
1682;SDS011;13252;53.596;10.060;2022-08-01T10:23:23;12.40;;;1.93;;
1682;SDS011;13252;53.596;10.060;2022-08-01T10:26:06;11.80;;;3.23;;
1682;SDS011;13252;53.596;10.060;2022-08-01T10:28:35;10.50;;;2.60;;
1682;SDS011;13252;53.596;10.060;2022-08-01T10:31:05;12.07;;;3.60;;
1682;SDS011;13252;53.596;10.060;2022-08-01T10:33:39;17.90;;;2.93;;
1682;SDS011;13252;53.596;10.060;2022-08-01T10:36:20;9.00;;;2.63;;
1682;SDS011;13252;53.596;10.060;2022-08-01T10:38:51;21.93;;;3.53;;
1682;SDS011;13252;53.596;10.060;2022-08-01T10:41:19;14.80;;;2.80;;
1682;SDS011;13252;53.596;10.060;2022-08-01T10:43:48;18.20;;;2.67;;
1682;SDS011;13252;53.596;10.060;2022-08-01T10:46:17;7.70;;;2.83;;
1682;SDS011;13252;53.596;10.060;2022-08-01T10:48:47;13.33;;;3.27;;
1682;SDS011;13252;53.596;10.060;2022-08-01T10:51:19;9.40;;;2.63;;
1682;SDS011;13252;53.596;10.060;2022-08-01T10:54:08;12.07;;;2.60;;
1682;SDS011;13252;53.596;10.060;2022-08-01T10:56:40;12.70;;;3.90;;
1682;SDS011;13252;53.596;10.060;2022-08-01T10:59:10;8.70;;;2.33;;
1682;SDS011;13252;53.596;10.060;2022-08-01T11:01:57;9.90;;;2.27;;
1682;SDS011;13252;53.596;10.060;2022-08-01T11:04:31;8.37;;;2.60;;
1682;SDS011;13252;53.596;10.060;2022-08-01T11:07:05;6.43;;;2.00;;
1682;SDS011;13252;53.596;10.060;2022-08-01T11:09:39;11.03;;;2.77;;
1682;SDS011;13252;53.596;10.060;2022-08-01T11:12:12;9.60;;;2.00;;
1682;SDS011;13252;53.596;10.060;2022-08-01T11:18:01;10.97;;;2.10;;
1682;SDS011;13252;53.596;10.060;2022-08-01T11:20:31;13.97;;;2.93;;
1682;SDS011;13252;53.596;10.060;2022-08-01T11:23:18;11.13;;;2.37;;
1682;SDS011;13252;53.596;10.060;2022-08-01T11:29:11;10.43;;;2.00;;
1682;SDS011;13252;53.596;10.060;2022-08-01T11:31:46;10.50;;;2.43;;
1682;SDS011;13252;53.596;10.060;2022-08-01T11:34:15;12.73;;;2.67;;
1682;SDS011;13252;53.596;10.060;2022-08-01T11:36:42;12.27;;;2.20;;
1682;SDS011;13252;53.596;10.060;2022-08-01T11:39:27;7.93;;;1.67;;
1682;SDS011;13252;53.596;10.060;2022-08-01T11:41:55;10.43;;;2.00;;
1682;SDS011;13252;53.596;10.060;2022-08-01T11:44:24;16.73;;;2.10;;
1682;SDS011;13252;53.596;10.060;2022-08-01T11:46:57;6.33;;;2.00;;
1682;SDS011;13252;53.596;10.060;2022-08-01T11:49:27;6.10;;;1.30;;
1682;SDS011;13252;53.596;10.060;2022-08-01T11:51:59;7.90;;;1.90;;
1682;SDS011;13252;53.596;10.060;2022-08-01T11:54:36;11.10;;;1.80;;
1682;SDS011;13252;53.596;10.060;2022-08-01T11:57:06;8.00;;;2.00;;
1682;SDS011;13252;53.596;10.060;2022-08-01T11:59:36;10.50;;;2.70;;
1682;SDS011;13252;53.596;10.060;2022-08-01T12:02:21;7.70;;;2.17;;
1682;SDS011;13252;53.596;10.060;2022-08-01T12:04:57;15.30;;;2.47;;
1682;SDS011;13252;53.596;10.060;2022-08-01T12:07:26;13.83;;;1.80;;
1682;SDS011;13252;53.596;10.060;2022-08-01T12:10:00;8.40;;;2.40;;
1682;SDS011;13252;53.596;10.060;2022-08-01T12:12:29;9.83;;;1.93;;
1682;SDS011;13252;53.596;10.060;2022-08-01T12:14:57;8.10;;;1.90;;
1682;SDS011;13252;53.596;10.060;2022-08-01T12:17:29;6.77;;;1.80;;
1682;SDS011;13252;53.596;10.060;2022-08-01T12:19:58;10.67;;;1.80;;
1682;SDS011;13252;53.596;10.060;2022-08-01T12:22:26;7.83;;;1.90;;
1682;SDS011;13252;53.596;10.060;2022-08-01T12:24:54;17.03;;;2.57;;
1682;SDS011;13252;53.596;10.060;2022-08-01T12:27:26;15.57;;;1.80;;
1682;SDS011;13252;53.596;10.060;2022-08-01T12:29:54;13.33;;;2.37;;
1682;SDS011;13252;53.596;10.060;2022-08-01T12:32:28;7.33;;;1.40;;
1682;SDS011;13252;53.596;10.060;2022-08-01T12:35:02;7.10;;;1.50;;
1682;SDS011;13252;53.596;10.060;2022-08-01T12:37:32;8.30;;;1.80;;
1682;SDS011;13252;53.596;10.060;2022-08-01T12:39:59;7.10;;;1.97;;
1682;SDS011;13252;53.596;10.060;2022-08-01T12:42:28;8.67;;;1.90;;
1682;SDS011;13252;53.596;10.060;2022-08-01T12:44:56;8.93;;;2.20;;
1682;SDS011;13252;53.596;10.060;2022-08-01T12:47:24;6.90;;;1.97;;
1682;SDS011;13252;53.596;10.060;2022-08-01T12:49:52;8.93;;;1.60;;
1682;SDS011;13252;53.596;10.060;2022-08-01T12:52:19;9.93;;;1.83;;
1682;SDS011;13252;53.596;10.060;2022-08-01T12:55:09;7.50;;;1.63;;
1682;SDS011;13252;53.596;10.060;2022-08-01T12:57:40;9.13;;;1.20;;
1682;SDS011;13252;53.596;10.060;2022-08-01T13:00:12;7.53;;;1.57;;
1682;SDS011;13252;53.596;10.060;2022-08-01T13:02:42;8.20;;;1.83;;
1682;SDS011;13252;53.596;10.060;2022-08-01T13:05:10;5.90;;;1.87;;
1682;SDS011;13252;53.596;10.060;2022-08-01T13:07:42;7.90;;;1.67;;
1682;SDS011;13252;53.596;10.060;2022-08-01T13:10:12;8.87;;;2.00;;
1682;SDS011;13252;53.596;10.060;2022-08-01T13:12:51;4.93;;;1.50;;
1682;SDS011;13252;53.596;10.060;2022-08-01T13:15:21;10.03;;;2.20;;
1682;SDS011;13252;53.596;10.060;2022-08-01T13:17:52;9.37;;;2.50;;
1682;SDS011;13252;53.596;10.060;2022-08-01T13:20:22;9.90;;;1.67;;
1682;SDS011;13252;53.596;10.060;2022-08-01T13:22:50;7.20;;;1.67;;
1682;SDS011;13252;53.596;10.060;2022-08-01T13:25:18;10.37;;;1.90;;
1682;SDS011;13252;53.596;10.060;2022-08-01T13:27:50;9.73;;;2.13;;
1682;SDS011;13252;53.596;10.060;2022-08-01T13:30:50;10.50;;;1.90;;
1682;SDS011;13252;53.596;10.060;2022-08-01T13:33:19;7.87;;;1.70;;
1682;SDS011;13252;53.596;10.060;2022-08-01T13:35:46;7.03;;;1.33;;
1682;SDS011;13252;53.596;10.060;2022-08-01T13:38:17;5.30;;;1.43;;
1682;SDS011;13252;53.596;10.060;2022-08-01T13:40:45;13.47;;;2.10;;
1682;SDS011;13252;53.596;10.060;2022-08-01T13:43:14;9.33;;;2.33;;
1682;SDS011;13252;53.596;10.060;2022-08-01T13:45:42;6.77;;;1.63;;
1682;SDS011;13252;53.596;10.060;2022-08-01T13:48:10;10.43;;;2.73;;
1682;SDS011;13252;53.596;10.060;2022-08-01T13:50:45;7.20;;;1.87;;
1682;SDS011;13252;53.596;10.060;2022-08-01T13:53:32;6.70;;;1.20;;
1682;SDS011;13252;53.596;10.060;2022-08-01T13:56:00;8.10;;;2.37;;
1682;SDS011;13252;53.596;10.060;2022-08-01T13:58:29;7.00;;;1.80;;
1682;SDS011;13252;53.596;10.060;2022-08-01T14:00:57;11.30;;;1.80;;
1682;SDS011;13252;53.596;10.060;2022-08-01T14:03:25;7.50;;;1.50;;
1682;SDS011;13252;53.596;10.060;2022-08-01T14:05:59;7.93;;;1.53;;
1682;SDS011;13252;53.596;10.060;2022-08-01T14:08:26;9.83;;;1.93;;
1682;SDS011;13252;53.596;10.060;2022-08-01T14:10:56;9.97;;;2.60;;
1682;SDS011;13252;53.596;10.060;2022-08-01T14:13:25;7.63;;;1.87;;
1682;SDS011;13252;53.596;10.060;2022-08-01T14:16:03;10.60;;;1.57;;
1682;SDS011;13252;53.596;10.060;2022-08-01T14:18:31;5.70;;;1.57;;
1682;SDS011;13252;53.596;10.060;2022-08-01T14:21:03;6.73;;;2.00;;
1682;SDS011;13252;53.596;10.060;2022-08-01T14:23:31;7.00;;;1.90;;
1682;SDS011;13252;53.596;10.060;2022-08-01T14:25:58;8.80;;;1.23;;
1682;SDS011;13252;53.596;10.060;2022-08-01T14:28:36;7.20;;;1.80;;
1682;SDS011;13252;53.596;10.060;2022-08-01T14:31:06;5.50;;;1.60;;
1682;SDS011;13252;53.596;10.060;2022-08-01T14:33:34;7.97;;;2.03;;
1682;SDS011;13252;53.596;10.060;2022-08-01T14:36:02;7.03;;;1.80;;
1682;SDS011;13252;53.596;10.060;2022-08-01T14:38:50;12.70;;;1.87;;
1682;SDS011;13252;53.596;10.060;2022-08-01T14:41:18;5.80;;;1.80;;
1682;SDS011;13252;53.596;10.060;2022-08-01T14:43:45;6.97;;;1.53;;
1682;SDS011;13252;53.596;10.060;2022-08-01T14:46:14;8.30;;;2.20;;
1682;SDS011;13252;53.596;10.060;2022-08-01T14:48:42;9.97;;;1.43;;
1682;SDS011;13252;53.596;10.060;2022-08-01T14:51:10;6.97;;;1.80;;
1682;SDS011;13252;53.596;10.060;2022-08-01T14:53:37;8.90;;;1.80;;
1682;SDS011;13252;53.596;10.060;2022-08-01T14:56:15;5.53;;;1.90;;
1682;SDS011;13252;53.596;10.060;2022-08-01T14:58:43;8.00;;;1.90;;
1682;SDS011;13252;53.596;10.060;2022-08-01T15:01:11;4.80;;;1.50;;
1682;SDS011;13252;53.596;10.060;2022-08-01T15:03:40;7.20;;;1.60;;
1682;SDS011;13252;53.596;10.060;2022-08-01T15:06:08;9.60;;;1.90;;